createdAt,value
2023-04-15T00:00:01.350Z,2.6692
2023-04-15T00:01:03.039Z,2.8308
2023-04-15T00:02:04.708Z,2.8000
2023-04-15T00:03:06.476Z,2.9231
2023-04-15T00:04:08.056Z,2.6923
2023-04-15T00:05:09.624Z,2.6154
2023-04-15T00:06:11.324Z,2.4231
2023-04-15T00:07:12.966Z,2.5538
2023-04-15T00:08:14.572Z,2.6923
2023-04-15T00:09:16.254Z,2.5385
2023-04-15T00:10:17.894Z,2.7769
2023-04-15T00:11:19.585Z,2.5077
2023-04-15T00:12:21.189Z,2.5615
2023-04-15T00:13:22.825Z,2.6385
2023-04-15T00:14:24.526Z,2.8462
2023-04-15T00:15:26.099Z,2.6385
2023-04-15T00:16:27.840Z,2.6154
2023-04-15T00:17:29.503Z,2.5154
2023-04-15T00:18:31.083Z,2.5077
2023-04-15T00:19:32.809Z,3.0462
2023-04-15T00:20:34.402Z,2.9000
2023-04-15T00:21:36.083Z,2.7846
2023-04-15T00:22:37.746Z,2.6846
2023-04-15T00:23:39.387Z,2.5154
2023-04-15T00:24:41.004Z,2.7615
2023-04-15T00:25:42.662Z,3.0000
2023-04-15T00:26:44.401Z,2.6385
2023-04-15T00:27:45.962Z,2.7154
2023-04-15T00:28:47.651Z,2.8923
2023-04-15T00:29:49.363Z,2.5692
2023-04-15T00:30:51.058Z,3.2000
2023-04-15T00:31:52.704Z,3.1385
2023-04-15T00:32:54.391Z,2.6923
2023-04-15T00:33:55.965Z,2.8000
2023-04-15T00:34:57.712Z,2.9231
2023-04-15T00:35:59.329Z,3.1692
2023-04-15T00:37:00.980Z,2.8077
2023-04-15T00:38:02.663Z,2.7000
2023-04-15T00:39:04.240Z,2.6231
2023-04-15T00:40:05.969Z,2.4769
2023-04-15T00:41:07.590Z,2.3769
2023-04-15T00:42:09.288Z,2.7231
2023-04-15T00:43:10.907Z,2.5692
2023-04-15T00:44:12.553Z,2.8308
2023-04-15T00:45:14.220Z,2.5077
2023-04-15T00:46:15.907Z,2.5846
2023-04-15T00:47:17.565Z,2.9000
2023-04-15T00:48:19.153Z,2.5462
2023-04-15T00:49:20.794Z,2.7154
2023-04-15T00:50:22.417Z,2.5385
2023-04-15T00:51:24.109Z,2.3846
2023-04-15T00:52:25.778Z,2.6846
2023-04-15T00:53:27.449Z,2.6077
2023-04-15T00:54:29.081Z,2.3846
2023-04-15T00:55:30.688Z,2.3385
2023-04-15T00:56:32.350Z,2.5308
2023-04-15T00:57:34.080Z,2.4615
2023-04-15T00:58:35.591Z,2.4846
2023-04-15T00:59:37.213Z,2.5231
2023-04-15T01:00:38.877Z,2.4923
2023-04-15T01:01:40.571Z,2.2769
2023-04-15T01:02:42.322Z,2.4231
2023-04-15T01:03:44.027Z,2.3769
2023-04-15T01:04:45.471Z,2.2769
2023-04-15T01:05:47.132Z,2.3615
2023-04-15T01:06:48.831Z,2.1923
2023-04-15T01:07:50.488Z,2.2846
2023-04-15T01:08:52.108Z,2.6692
2023-04-15T01:09:53.778Z,2.3462
2023-04-15T01:10:55.426Z,2.5385
2023-04-15T01:11:57.088Z,2.4692
2023-04-15T01:12:58.780Z,2.4154
2023-04-15T01:14:00.427Z,2.3769
2023-04-15T01:15:02.048Z,2.3923
2023-04-15T01:16:03.772Z,2.2385
2023-04-15T01:17:05.389Z,2.4385
2023-04-15T01:18:07.059Z,2.4462
2023-04-15T01:19:08.662Z,2.3231
2023-04-15T01:20:10.330Z,2.3769
2023-04-15T01:21:12.030Z,2.2231
2023-04-15T01:22:13.626Z,2.5769
2023-04-15T01:23:15.291Z,2.8769
2023-04-15T01:24:16.969Z,2.5385
2023-04-15T01:25:18.669Z,2.4077
2023-04-15T01:26:20.273Z,2.3000
2023-04-15T01:27:21.926Z,2.1615
2023-04-15T01:28:23.593Z,2.1385
2023-04-15T01:29:25.228Z,2.6538
2023-04-15T01:30:26.870Z,2.5462
2023-04-15T01:31:28.602Z,2.2385
2023-04-15T01:32:30.206Z,2.1462
2023-04-15T01:33:31.985Z,2.2692
2023-04-15T01:34:35.632Z,2.4538
2023-04-15T01:35:35.262Z,2.3000
2023-04-15T01:36:36.888Z,2.4154
2023-04-15T01:37:38.470Z,2.3692
2023-04-15T01:38:40.129Z,2.3154
2023-04-15T01:39:41.744Z,2.2000
2023-04-15T01:40:43.421Z,2.3769
2023-04-15T01:41:45.063Z,2.3923
2023-04-15T01:42:46.715Z,2.2462
2023-04-15T01:43:48.406Z,2.1846
2023-04-15T01:44:50.027Z,2.1385
2023-04-15T01:45:51.710Z,2.0538
2023-04-15T01:46:53.423Z,2.3385
2023-04-15T01:47:55.014Z,2.0538
2023-04-15T01:48:56.733Z,1.9538
2023-04-15T01:49:58.311Z,1.9615
2023-04-15T01:50:59.928Z,1.9462
2023-04-15T01:52:01.695Z,2.0846
2023-04-15T01:53:03.236Z,2.1462
2023-04-15T01:54:04.985Z,2.0923
2023-04-15T01:55:06.590Z,1.9692
2023-04-15T01:56:08.190Z,1.9154
2023-04-15T01:57:09.883Z,2.0154
2023-04-15T01:58:11.491Z,1.9923
2023-04-15T01:59:13.198Z,2.0385
2023-04-15T02:00:14.810Z,1.9538
2023-04-15T02:01:16.499Z,2.3923
2023-04-15T02:02:18.136Z,2.1769
2023-04-15T02:03:19.904Z,2.0231
2023-04-15T02:04:21.453Z,2.0923
2023-04-15T02:05:23.061Z,1.8077
2023-04-15T02:06:24.712Z,1.9231
2023-04-15T02:07:26.371Z,1.9538
2023-04-15T02:08:28.032Z,2.0077
2023-04-15T02:09:29.695Z,2.4000
2023-04-15T02:10:31.298Z,2.4385
2023-04-15T02:11:32.976Z,2.2000
2023-04-15T02:12:34.616Z,1.9154
2023-04-15T02:13:36.320Z,2.0538
2023-04-15T02:14:37.982Z,1.8692
2023-04-15T02:15:39.581Z,2.1154
2023-04-15T02:16:41.321Z,2.0538
2023-04-15T02:17:42.946Z,2.0231
2023-04-15T02:18:44.581Z,2.0692
2023-04-15T02:19:46.221Z,2.0923
2023-04-15T02:20:47.847Z,2.0385
2023-04-15T02:21:49.504Z,1.8154
2023-04-15T02:22:51.156Z,2.2308
2023-04-15T02:23:54.011Z,2.0385
2023-04-15T02:24:54.530Z,2.0000
2023-04-15T02:25:56.120Z,2.2846
2023-04-15T02:26:57.774Z,1.9385
2023-04-15T02:28:00.400Z,2.3692
2023-04-15T02:29:01.274Z,2.3923
2023-04-15T02:30:02.859Z,1.9462
2023-04-15T02:31:04.469Z,2.0308
2023-04-15T02:32:06.275Z,2.1231
2023-04-15T02:33:07.782Z,2.0231
2023-04-15T02:34:09.477Z,2.2000
2023-04-15T02:35:11.139Z,2.4538
2023-04-15T02:36:12.780Z,2.1385
2023-04-15T02:37:14.429Z,2.0308
2023-04-15T02:38:16.083Z,2.0154
2023-04-15T02:39:17.717Z,2.0538
2023-04-15T02:40:19.297Z,2.1308
2023-04-15T02:41:20.934Z,2.1154
2023-04-15T02:42:22.621Z,1.8308
2023-04-15T02:43:24.261Z,1.8462
2023-04-15T02:44:25.935Z,1.8846
2023-04-15T02:45:27.628Z,1.7000
2023-04-15T02:46:29.337Z,1.7077
2023-04-15T02:47:30.943Z,1.5462
2023-04-15T02:48:32.557Z,1.6692
2023-04-15T02:49:34.180Z,1.6308
2023-04-15T02:50:35.878Z,1.4231
2023-04-15T02:51:37.454Z,1.5308
2023-04-15T02:52:39.116Z,1.3154
2023-04-15T02:53:40.790Z,1.4846
2023-04-15T02:54:42.426Z,1.1923
2023-04-15T02:55:44.133Z,1.1385
2023-04-15T02:56:45.715Z,1.4615
2023-04-15T02:57:47.378Z,1.2462
2023-04-15T02:58:49.076Z,1.3615
2023-04-15T02:59:50.688Z,1.5077
2023-04-15T03:00:52.389Z,1.6000
2023-04-15T03:01:54.156Z,1.3615
2023-04-15T03:02:55.769Z,1.2615
2023-04-15T03:03:57.443Z,1.1846
2023-04-15T03:04:58.935Z,1.4077
2023-04-15T03:06:00.631Z,1.3077
2023-04-15T03:07:02.246Z,1.3077
2023-04-15T03:08:03.924Z,1.1923
2023-04-15T03:09:05.548Z,1.0538
2023-04-15T03:10:07.208Z,1.2538
2023-04-15T03:11:08.891Z,1.2846
2023-04-15T03:12:10.493Z,1.1769
2023-04-15T03:13:12.098Z,1.4000
2023-04-15T03:14:13.763Z,1.2154
2023-04-15T03:15:15.537Z,1.3077
2023-04-15T03:16:17.263Z,1.2769
2023-04-15T03:17:18.792Z,1.1308
2023-04-15T03:18:20.589Z,1.2846
2023-04-15T03:19:22.073Z,1.3077
2023-04-15T03:20:23.808Z,1.1077
2023-04-15T03:21:25.483Z,1.2615
2023-04-15T03:22:27.052Z,1.4308
2023-04-15T03:23:28.737Z,1.4462
2023-04-15T03:24:30.369Z,1.1154
2023-04-15T03:25:32.111Z,1.4000
2023-04-15T03:26:33.739Z,1.5154
2023-04-15T03:27:35.372Z,1.3385
2023-04-15T03:28:36.971Z,1.2538
2023-04-15T03:29:38.622Z,1.2462
2023-04-15T03:30:40.353Z,1.2077
2023-04-15T03:31:42.032Z,1.1308
2023-04-15T03:32:43.563Z,1.1077
2023-04-15T03:33:45.215Z,1.1538
2023-04-15T03:34:46.891Z,1.0769
2023-04-15T03:35:48.491Z,1.2077
2023-04-15T03:36:50.234Z,1.1154
2023-04-15T03:37:51.771Z,1.1231
2023-04-15T03:38:53.414Z,1.1538
2023-04-15T03:39:55.107Z,1.3077
2023-04-15T03:40:56.711Z,1.2769
2023-04-15T03:41:58.428Z,1.2462
2023-04-15T03:43:00.130Z,1.1462
2023-04-15T03:44:01.574Z,1.0692
2023-04-15T03:45:03.275Z,1.1154
2023-04-15T03:46:04.951Z,1.1769
2023-04-15T03:47:06.633Z,1.5615
2023-04-15T03:48:17.060Z,1.1385
2023-04-15T03:49:09.862Z,1.1231
2023-04-15T03:50:11.494Z,1.1538
2023-04-15T03:51:13.114Z,1.0846
2023-04-15T03:52:14.764Z,1.1385
2023-04-15T03:53:16.412Z,1.3308
2023-04-15T03:54:18.078Z,1.3923
2023-04-15T03:55:19.720Z,1.2615
2023-04-15T03:56:21.344Z,1.2231
2023-04-15T03:57:23.007Z,1.5385
2023-04-15T03:58:24.648Z,0.9692
2023-04-15T03:59:26.271Z,1.1462
2023-04-15T04:00:27.955Z,1.3692
2023-04-15T04:01:29.570Z,1.3231
2023-04-15T04:02:31.335Z,1.0077
2023-04-15T04:03:32.951Z,1.1000
2023-04-15T04:04:34.558Z,1.3846
2023-04-15T04:05:36.152Z,1.2154
2023-04-15T04:06:37.803Z,1.4385
2023-04-15T04:07:39.473Z,1.1615
2023-04-15T04:08:41.111Z,1.2308
2023-04-15T04:09:42.734Z,1.0692
2023-04-15T04:10:44.394Z,1.3385
2023-04-15T04:11:46.031Z,1.1231
2023-04-15T04:12:47.782Z,1.1308
2023-04-15T04:13:49.347Z,1.2462
2023-04-15T04:14:50.947Z,1.1308
2023-04-15T04:15:52.657Z,1.1385
2023-04-15T04:16:54.319Z,1.3692
2023-04-15T04:17:55.993Z,1.3846
2023-04-15T04:18:57.583Z,1.3846
2023-04-15T04:19:59.324Z,1.1385
2023-04-15T04:21:00.947Z,1.0462
2023-04-15T04:22:02.705Z,0.9462
2023-04-15T04:23:04.313Z,1.2846
2023-04-15T04:24:05.830Z,1.0692
2023-04-15T04:25:07.440Z,1.0538
2023-04-15T04:26:09.142Z,1.1154
2023-04-15T04:27:10.797Z,1.1923
2023-04-15T04:28:12.416Z,1.1538
2023-04-15T04:29:14.051Z,1.0769
2023-04-15T04:30:15.715Z,1.0923
2023-04-15T04:31:17.420Z,0.9846
2023-04-15T04:32:19.069Z,1.1385
2023-04-15T04:33:20.656Z,1.3077
2023-04-15T04:34:22.312Z,1.0846
2023-04-15T04:35:23.956Z,1.1077
2023-04-15T04:36:25.579Z,1.0308
2023-04-15T04:37:27.313Z,0.8231
2023-04-15T04:38:28.880Z,0.8846
2023-04-15T04:39:30.570Z,0.8462
2023-04-15T04:40:32.166Z,0.8769
2023-04-15T04:41:33.838Z,0.8615
2023-04-15T04:42:36.803Z,0.8462
2023-04-15T04:43:37.128Z,0.9846
2023-04-15T04:44:38.779Z,0.8154
2023-04-15T04:45:40.464Z,0.9154
2023-04-15T04:46:42.085Z,0.9923
2023-04-15T04:47:43.836Z,0.8308
2023-04-15T04:49:00.000Z,0.8154
2023-04-15T04:49:47.062Z,0.9154
2023-04-15T04:50:48.665Z,0.7846
2023-04-15T04:51:50.368Z,0.8692
2023-04-15T04:52:52.024Z,0.9077
2023-04-15T04:53:53.655Z,0.9308
2023-04-15T04:54:55.278Z,1.0000
2023-04-15T04:55:56.928Z,0.8154
2023-04-15T04:56:58.588Z,0.9000
2023-04-15T04:58:00.268Z,1.0000
2023-04-15T04:59:02.130Z,0.7846
2023-04-15T05:00:03.608Z,0.8462
2023-04-15T05:01:05.316Z,0.9462
2023-04-15T05:02:06.930Z,0.8538
2023-04-15T05:03:08.763Z,0.7923
2023-04-15T05:04:10.396Z,0.7692
2023-04-15T05:05:11.882Z,0.6154
2023-04-15T05:06:13.525Z,0.8538
2023-04-15T05:07:15.160Z,0.9769
2023-04-15T05:08:16.856Z,0.8769
2023-04-15T05:09:18.548Z,0.7615
2023-04-15T05:10:20.145Z,0.8923
2023-04-15T05:11:21.874Z,0.9000
2023-04-15T05:12:23.435Z,1.0154
2023-04-15T05:13:25.145Z,0.8769
2023-04-15T05:14:26.752Z,0.8077
2023-04-15T05:15:28.539Z,0.8000
2023-04-15T05:16:29.912Z,0.9077
2023-04-15T05:17:31.779Z,0.7923
2023-04-15T05:18:33.419Z,0.9385
2023-04-15T05:19:35.003Z,0.8769
2023-04-15T05:20:36.623Z,0.9154
2023-04-15T05:21:39.512Z,0.9846
2023-04-15T05:22:39.954Z,0.7308
2023-04-15T05:23:41.624Z,0.8769
2023-04-15T05:24:43.294Z,0.9615
2023-04-15T05:25:44.907Z,0.7077
2023-04-15T05:26:46.589Z,0.9000
2023-04-15T05:27:48.132Z,0.9308
2023-04-15T05:28:49.729Z,0.9385
2023-04-15T05:29:51.407Z,1.1538
2023-04-15T05:30:53.069Z,1.0615
2023-04-15T05:31:54.660Z,0.9615
2023-04-15T05:32:56.329Z,1.2308
2023-04-15T05:33:58.003Z,1.0231
2023-04-15T05:34:59.628Z,1.1154
2023-04-15T05:36:01.219Z,1.0308
2023-04-15T05:37:02.918Z,0.9769
2023-04-15T05:38:04.564Z,1.0231
2023-04-15T05:39:06.332Z,0.9231
2023-04-15T05:40:07.953Z,0.9769
2023-04-15T05:41:09.638Z,1.0615
2023-04-15T05:42:11.249Z,0.9769
2023-04-15T05:43:12.864Z,0.9769
2023-04-15T05:44:14.605Z,0.9154
2023-04-15T05:45:16.192Z,1.2154
2023-04-15T05:46:18.002Z,1.2615
2023-04-15T05:47:19.576Z,1.2692
2023-04-15T05:48:21.167Z,1.0000
2023-04-15T05:49:22.840Z,0.8923
2023-04-15T05:50:24.431Z,1.0154
2023-04-15T05:51:26.085Z,0.9923
2023-04-15T05:52:27.704Z,0.8923
2023-04-15T05:53:29.358Z,0.7769
2023-04-15T05:54:31.056Z,1.1000
2023-04-15T05:55:32.673Z,1.0538
2023-04-15T05:56:34.311Z,1.5769
2023-04-15T05:57:36.029Z,1.0308
2023-04-15T05:58:37.712Z,1.0154
2023-04-15T05:59:39.352Z,1.0615
2023-04-15T06:00:41.009Z,0.9231
2023-04-15T06:01:42.590Z,0.9769
2023-04-15T06:02:44.420Z,0.8231
2023-04-15T06:03:46.110Z,1.2692
2023-04-15T06:04:47.643Z,0.8000
2023-04-15T06:05:49.212Z,0.8000
2023-04-15T06:06:50.868Z,0.9154
2023-04-15T06:07:52.443Z,0.7923
2023-04-15T06:08:54.116Z,0.7846
2023-04-15T06:09:55.801Z,0.8923
2023-04-15T06:10:57.402Z,0.7462
2023-04-15T06:11:59.060Z,0.7462
2023-04-15T06:13:00.700Z,0.8154
2023-04-15T06:14:02.387Z,1.2769
2023-04-15T06:15:04.034Z,1.2846
2023-04-15T06:16:05.701Z,1.3462
2023-04-15T06:17:07.315Z,1.3308
2023-04-15T06:18:08.936Z,1.2692
2023-04-15T06:19:10.642Z,1.2615
2023-04-15T06:20:12.273Z,1.1692
2023-04-15T06:21:13.914Z,1.4385
2023-04-15T06:22:15.559Z,1.4308
2023-04-15T06:23:17.247Z,1.2538
2023-04-15T06:24:18.856Z,1.3154
2023-04-15T06:25:20.533Z,0.9769
2023-04-15T06:26:22.179Z,1.1385
2023-04-15T06:27:23.805Z,1.1077
2023-04-15T06:28:25.460Z,1.2077
2023-04-15T06:29:27.152Z,1.2846
2023-04-15T06:30:28.772Z,0.9615
2023-04-15T06:31:30.508Z,0.8769
2023-04-15T06:32:32.120Z,0.8308
2023-04-15T06:33:33.704Z,0.8231
2023-04-15T06:34:35.406Z,0.9385
2023-04-15T06:35:37.025Z,0.9077
2023-04-15T06:36:38.660Z,1.0231
2023-04-15T06:37:40.357Z,1.1385
2023-04-15T06:38:41.969Z,1.0308
2023-04-15T06:39:43.683Z,1.2077
2023-04-15T06:40:45.301Z,0.8923
2023-04-15T06:41:46.929Z,0.9385
2023-04-15T06:42:48.613Z,0.9308
2023-04-15T06:43:50.254Z,1.1000
2023-04-15T06:44:51.942Z,0.9385
2023-04-15T06:45:53.538Z,1.0462
2023-04-15T06:46:55.193Z,0.9462
2023-04-15T06:47:56.896Z,1.0231
2023-04-15T06:48:59.596Z,1.2385
2023-04-15T06:50:00.295Z,1.1462
2023-04-15T06:51:01.892Z,0.9462
2023-04-15T06:52:03.534Z,1.2154
2023-04-15T06:53:05.198Z,0.9692
2023-04-15T06:54:06.836Z,1.1385
2023-04-15T06:55:08.550Z,1.1692
2023-04-15T06:56:10.197Z,1.3154
2023-04-15T06:57:11.795Z,1.2077
2023-04-15T06:58:13.472Z,1.5615
2023-04-15T06:59:15.129Z,1.6538
2023-04-15T07:00:16.801Z,1.1846
2023-04-15T07:01:18.494Z,1.3692
2023-04-15T07:02:20.175Z,1.2692
2023-04-15T07:03:21.700Z,1.3923
2023-04-15T07:04:23.397Z,1.2385
2023-04-15T07:05:25.091Z,1.5231
2023-04-15T07:06:26.700Z,1.3692
2023-04-15T07:07:28.369Z,1.3000
2023-04-15T07:08:29.958Z,1.2615
2023-04-15T07:09:31.581Z,1.5538
2023-04-15T07:10:33.390Z,1.1846
2023-04-15T07:11:34.920Z,1.2769
2023-04-15T07:12:36.563Z,1.2154
2023-04-15T07:13:38.181Z,1.2077
2023-04-15T07:14:39.812Z,1.4308
2023-04-15T07:15:41.505Z,1.3538
2023-04-15T07:16:43.187Z,1.2923
2023-04-15T07:17:44.787Z,1.4385
2023-04-15T07:18:46.371Z,1.3846
2023-04-15T07:19:48.035Z,1.5308
2023-04-15T07:20:49.746Z,1.4385
2023-04-15T07:21:51.350Z,1.4077
2023-04-15T07:22:52.954Z,1.3538
2023-04-15T07:23:54.774Z,1.4538
2023-04-15T07:24:56.268Z,1.7000
2023-04-15T07:25:57.950Z,1.3769
2023-04-15T07:27:01.014Z,1.4077
2023-04-15T07:28:01.309Z,1.3154
2023-04-15T07:29:03.183Z,1.4846
2023-04-15T07:30:04.551Z,1.6308
2023-04-15T07:31:06.282Z,1.7231
2023-04-15T07:32:07.975Z,1.6538
2023-04-15T07:33:09.501Z,1.5000
2023-04-15T07:34:11.172Z,1.7231
2023-04-15T07:35:12.823Z,1.6308
2023-04-15T07:36:14.506Z,1.6077
2023-04-15T07:37:16.102Z,1.6846
2023-04-15T07:38:17.742Z,1.6615
2023-04-15T07:39:19.444Z,1.7154
2023-04-15T07:40:21.052Z,1.7231
2023-04-15T07:41:22.764Z,1.7000
2023-04-15T07:42:24.338Z,1.9154
2023-04-15T07:43:26.058Z,1.7538
2023-04-15T07:44:27.716Z,1.6154
2023-04-15T07:45:29.279Z,1.5231
2023-04-15T07:46:30.997Z,1.7923
2023-04-15T07:47:32.660Z,1.4538
2023-04-15T07:48:35.613Z,1.5538
2023-04-15T07:49:35.856Z,1.9385
2023-04-15T07:50:37.429Z,1.5769
2023-04-15T07:51:39.047Z,1.7462
2023-04-15T07:52:40.693Z,1.7385
2023-04-15T07:53:42.327Z,1.6692
2023-04-15T07:54:44.005Z,1.6769
2023-04-15T07:55:45.657Z,2.0538
2023-04-15T07:56:47.366Z,1.8846
2023-04-15T07:57:48.943Z,1.5154
2023-04-15T07:58:50.604Z,1.7154
2023-04-15T07:59:52.242Z,1.7308
2023-04-15T08:00:53.872Z,1.6846
2023-04-15T08:01:55.593Z,1.7385
2023-04-15T08:02:57.321Z,1.6308
2023-04-15T08:03:58.889Z,1.6769
2023-04-15T08:05:00.493Z,1.8615
2023-04-15T08:06:02.095Z,2.0154
2023-04-15T08:07:03.752Z,1.9077
2023-04-15T08:08:05.386Z,1.9692
2023-04-15T08:09:07.252Z,1.8615
2023-04-15T08:10:08.678Z,1.6154
2023-04-15T08:11:10.539Z,1.8538
2023-04-15T08:12:12.002Z,1.8692
2023-04-15T08:13:13.605Z,1.5154
2023-04-15T08:14:15.237Z,1.7923
2023-04-15T08:15:16.896Z,1.6000
2023-04-15T08:16:18.631Z,1.6231
2023-04-15T08:17:20.235Z,1.6462
2023-04-15T08:18:21.934Z,1.8385
2023-04-15T08:19:23.477Z,1.8846
2023-04-15T08:20:25.137Z,1.8000
2023-04-15T08:21:26.755Z,1.6385
2023-04-15T08:22:28.482Z,1.8923
2023-04-15T08:23:30.061Z,1.6538
2023-04-15T08:24:31.709Z,1.7231
2023-04-15T08:25:33.430Z,1.7000
2023-04-15T08:26:35.050Z,1.6231
2023-04-15T08:27:36.756Z,2.0846
2023-04-15T08:28:38.345Z,1.9308
2023-04-15T08:29:39.993Z,1.9846
2023-04-15T08:30:41.646Z,1.8538
2023-04-15T08:31:43.354Z,1.8077
2023-04-15T08:32:45.049Z,1.8077
2023-04-15T08:33:46.594Z,1.7000
2023-04-15T08:34:48.257Z,1.7231
2023-04-15T08:35:49.862Z,1.6538
2023-04-15T08:36:51.590Z,1.4923
2023-04-15T08:37:53.220Z,1.6077
2023-04-15T08:38:54.854Z,1.5000
2023-04-15T08:39:56.480Z,1.6000
2023-04-15T08:40:58.093Z,1.5692
2023-04-15T08:41:59.721Z,1.5077
2023-04-15T08:43:01.401Z,1.5692
2023-04-15T08:44:03.067Z,1.7538
2023-04-15T08:45:04.685Z,1.8154
2023-04-15T08:46:06.230Z,1.4538
2023-04-15T08:47:07.983Z,1.6615
2023-04-15T08:48:09.574Z,1.5231
2023-04-15T08:49:11.162Z,1.4154
2023-04-15T08:50:12.817Z,1.4462
2023-04-15T08:51:14.483Z,1.5231
2023-04-15T08:52:16.129Z,1.8231
2023-04-15T08:53:17.741Z,1.5923
2023-04-15T08:54:19.413Z,1.4615
2023-04-15T08:55:21.025Z,1.5462
2023-04-15T08:56:22.698Z,1.8154
2023-04-15T08:57:24.321Z,1.8154
2023-04-15T08:58:25.987Z,1.4692
2023-04-15T08:59:27.587Z,1.3769
2023-04-15T09:00:29.244Z,1.6615
2023-04-15T09:01:30.935Z,1.7538
2023-04-15T09:02:32.620Z,1.8077
2023-04-15T09:03:34.356Z,1.8692
2023-04-15T09:04:35.796Z,2.0077
2023-04-15T09:05:37.485Z,1.9462
2023-04-15T09:06:39.074Z,2.0077
2023-04-15T09:07:40.718Z,1.9538
2023-04-15T09:08:42.399Z,1.9538
2023-04-15T09:09:44.005Z,1.9846
2023-04-15T09:10:45.657Z,1.9154
2023-04-15T09:11:47.298Z,2.4000
2023-04-15T09:12:48.940Z,2.2692
2023-04-15T09:13:50.641Z,2.2385
2023-04-15T09:14:52.256Z,2.0077
2023-04-15T09:15:53.885Z,2.0769
2023-04-15T09:16:55.560Z,2.0538
2023-04-15T09:17:57.219Z,2.5385
2023-04-15T09:18:58.821Z,2.1769
2023-04-15T09:20:00.437Z,1.8308
2023-04-15T09:21:02.101Z,2.0615
2023-04-15T09:22:03.795Z,2.5538
2023-04-15T09:23:05.456Z,1.9154
2023-04-15T09:24:07.174Z,1.9769
2023-04-15T09:25:08.911Z,1.9077
2023-04-15T09:26:10.424Z,2.2769
2023-04-15T09:27:12.082Z,2.0231
2023-04-15T09:28:13.737Z,2.0923
2023-04-15T09:29:15.341Z,2.1154
2023-04-15T09:30:17.049Z,2.0385
2023-04-15T09:31:18.698Z,2.0000
2023-04-15T09:32:20.274Z,2.0154
2023-04-15T09:33:21.899Z,1.9923
2023-04-15T09:34:23.490Z,2.0615
2023-04-15T09:35:25.095Z,2.0231
2023-04-15T09:36:26.753Z,1.6769
2023-04-15T09:37:32.461Z,1.8077
2023-04-15T09:38:30.082Z,1.8769
2023-04-15T09:39:31.701Z,1.9846
2023-04-15T09:40:33.374Z,2.3615
2023-04-15T09:41:34.972Z,1.8769
2023-04-15T09:42:36.643Z,1.9538
2023-04-15T09:43:38.283Z,1.5923
2023-04-15T09:44:39.893Z,1.7692
2023-04-15T09:45:41.576Z,1.5077
2023-04-15T09:46:43.215Z,1.7615
2023-04-15T09:47:44.843Z,1.7769
2023-04-15T09:48:46.719Z,1.6846
2023-04-15T09:49:48.244Z,1.8923
2023-04-15T09:50:49.735Z,2.3538
2023-04-15T09:52:04.124Z,2.1462
2023-04-15T09:52:53.043Z,1.6538
2023-04-15T09:53:54.685Z,2.1923
2023-04-15T09:54:56.327Z,1.7385
2023-04-15T09:55:57.934Z,2.0077
2023-04-15T09:56:59.588Z,1.6308
2023-04-15T09:58:01.200Z,1.5385
2023-04-15T09:59:02.882Z,1.1769
2023-04-15T10:00:04.496Z,1.3769
2023-04-15T10:01:06.193Z,1.2308
2023-04-15T10:02:07.978Z,1.3231
2023-04-15T10:03:09.553Z,1.1769
2023-04-15T10:04:11.266Z,1.4077
2023-04-15T10:05:12.738Z,1.5077
2023-04-15T10:06:14.365Z,1.6538
2023-04-15T10:07:16.019Z,1.6615
2023-04-15T10:08:17.638Z,1.6769
2023-04-15T10:09:19.405Z,1.6000
2023-04-15T10:10:21.017Z,1.7769
2023-04-15T10:11:22.653Z,1.9231
2023-04-15T10:12:24.343Z,2.1000
2023-04-15T10:13:25.960Z,1.8923
2023-04-15T10:14:27.666Z,1.6077
2023-04-15T10:15:29.362Z,1.4077
2023-04-15T10:16:30.930Z,1.3000
2023-04-15T10:17:32.651Z,1.4154
2023-04-15T10:18:34.195Z,1.4923
2023-04-15T10:19:35.874Z,1.9154
2023-04-15T10:20:37.475Z,1.8154
2023-04-15T10:21:39.151Z,1.4846
2023-04-15T10:22:40.781Z,1.4846
2023-04-15T10:23:42.414Z,1.9846
2023-04-15T10:24:44.133Z,1.8846
2023-04-15T10:25:45.707Z,1.8231
2023-04-15T10:26:47.389Z,2.0231
2023-04-15T10:27:48.967Z,1.6923
2023-04-15T10:28:50.672Z,1.8615
2023-04-15T10:29:52.230Z,1.8308
2023-04-15T10:30:53.901Z,1.5923
2023-04-15T10:31:55.421Z,2.0308
2023-04-15T10:32:57.100Z,1.8615
2023-04-15T10:33:58.753Z,1.7000
2023-04-15T10:35:00.374Z,1.6308
2023-04-15T10:36:02.040Z,1.6462
2023-04-15T10:37:03.765Z,1.5538
2023-04-15T10:38:05.267Z,1.8308
2023-04-15T10:39:06.898Z,1.4692
2023-04-15T10:40:08.597Z,1.4462
2023-04-15T10:41:10.198Z,1.5692
2023-04-15T10:42:11.837Z,1.5154
2023-04-15T10:43:13.478Z,2.1308
2023-04-15T10:44:15.138Z,1.7077
2023-04-15T10:45:16.800Z,1.3385
2023-04-15T10:46:18.449Z,1.6846
2023-04-15T10:47:20.050Z,1.9846
2023-04-15T10:48:21.708Z,1.5308
2023-04-15T10:49:23.359Z,1.5692
2023-04-15T10:50:25.013Z,1.6538
2023-04-15T10:51:26.664Z,1.5615
2023-04-15T10:52:28.291Z,1.7769
2023-04-15T10:53:29.926Z,1.6692
2023-04-15T10:54:31.585Z,1.7615
2023-04-15T10:55:33.269Z,1.8000
2023-04-15T10:56:34.860Z,2.0154
2023-04-15T10:57:36.491Z,1.8692
2023-04-15T10:58:38.135Z,1.8846
2023-04-15T10:59:39.768Z,1.8615
2023-04-15T11:00:41.435Z,1.8615
2023-04-15T11:01:43.072Z,2.2000
2023-04-15T11:02:44.933Z,1.6692
2023-04-15T11:03:46.490Z,1.8692
2023-04-15T11:04:48.133Z,1.7385
2023-04-15T11:05:49.841Z,1.8077
2023-04-15T11:06:51.354Z,1.9615
2023-04-15T11:07:53.020Z,1.8077
2023-04-15T11:08:54.609Z,1.7231
2023-04-15T11:09:56.249Z,1.6000
2023-04-15T11:10:57.932Z,1.6846
2023-04-15T11:11:59.564Z,1.4846
2023-04-15T11:13:01.195Z,1.6538
2023-04-15T11:14:03.039Z,2.2615
2023-04-15T11:15:04.468Z,1.9692
2023-04-15T11:16:06.187Z,1.6846
2023-04-15T11:17:07.768Z,2.0538
2023-04-15T11:18:09.413Z,1.8846
2023-04-15T11:19:10.913Z,1.6308
2023-04-15T11:20:12.650Z,1.8308
2023-04-15T11:21:14.270Z,1.5231
2023-04-15T11:22:15.884Z,1.9308
2023-04-15T11:23:17.523Z,2.0308
2023-04-15T11:24:19.164Z,1.9692
2023-04-15T11:25:20.788Z,1.9462
2023-04-15T11:26:22.446Z,1.9077
2023-04-15T11:27:24.083Z,1.8538
2023-04-15T11:28:25.727Z,1.7692
2023-04-15T11:29:27.420Z,1.6846
2023-04-15T11:30:29.089Z,1.6923
2023-04-15T11:31:30.743Z,1.8077
2023-04-15T11:32:32.399Z,1.7692
2023-04-15T11:33:33.972Z,1.6769
2023-04-15T11:34:36.225Z,2.0923
2023-04-15T11:35:37.286Z,1.8308
2023-04-15T11:36:38.944Z,2.0077
2023-04-15T11:37:40.542Z,1.9385
2023-04-15T11:38:42.186Z,1.9538
2023-04-15T11:39:43.812Z,1.8000
2023-04-15T11:40:47.184Z,2.2000
2023-04-15T11:41:47.146Z,1.8154
2023-04-15T11:42:49.859Z,1.7538
2023-04-15T11:43:50.391Z,1.6769
2023-04-15T11:44:52.046Z,1.6000
2023-04-15T11:45:53.824Z,1.6385
2023-04-15T11:46:55.347Z,1.7846
2023-04-15T11:47:57.009Z,1.5692
2023-04-15T11:48:58.644Z,1.6615
2023-04-15T11:50:00.248Z,1.5308
2023-04-15T11:51:01.933Z,1.6462
2023-04-15T11:52:03.562Z,1.7923
2023-04-15T11:53:08.163Z,1.7846
2023-04-15T11:54:07.116Z,1.5385
2023-04-15T11:55:08.680Z,1.5923
2023-04-15T11:56:10.215Z,1.7231
2023-04-15T11:57:11.887Z,1.6231
2023-04-15T11:58:15.108Z,1.6308
2023-04-15T11:59:15.114Z,1.3462
2023-04-15T12:00:16.763Z,1.8692
2023-04-15T12:01:18.393Z,1.7231
2023-04-15T12:02:20.190Z,1.4846
2023-04-15T12:03:21.845Z,1.6846
2023-04-15T12:04:25.626Z,1.5077
2023-04-15T12:05:25.096Z,1.3923
2023-04-15T12:06:26.594Z,1.5077
2023-04-15T12:07:28.367Z,1.6385
2023-04-15T12:08:29.986Z,1.7462
2023-04-15T12:09:32.478Z,1.4231
2023-04-15T12:10:33.195Z,1.5231
2023-04-15T12:11:34.831Z,1.5615
2023-04-15T12:12:36.514Z,1.6308
2023-04-15T12:13:38.044Z,1.6000
2023-04-15T12:14:39.704Z,1.6769
2023-04-15T12:15:41.354Z,1.4231
2023-04-15T12:16:48.377Z,1.3385
2023-04-15T12:17:51.300Z,1.7538
2023-04-15T12:18:46.226Z,1.3538
2023-04-15T12:19:47.894Z,1.1923
2023-04-15T12:20:49.522Z,1.3000
2023-04-15T12:21:51.191Z,1.3769
2023-04-15T12:22:52.826Z,1.5385
2023-04-15T12:23:54.435Z,1.5385
2023-04-15T12:24:56.085Z,1.5308
2023-04-15T12:25:57.722Z,1.5077
2023-04-15T12:26:59.362Z,1.8077
2023-04-15T12:28:01.037Z,1.4385
2023-04-15T12:29:02.679Z,1.5077
2023-04-15T12:30:04.501Z,1.4769
2023-04-15T12:31:05.992Z,1.6846
2023-04-15T12:32:07.584Z,1.5692
2023-04-15T12:33:09.304Z,1.5538
2023-04-15T12:34:10.845Z,1.3231
2023-04-15T12:35:12.499Z,1.1385
2023-04-15T12:36:14.167Z,1.2923
2023-04-15T12:37:15.783Z,1.2846
2023-04-15T12:38:17.449Z,1.2385
2023-04-15T12:39:19.062Z,1.4385
2023-04-15T12:40:20.727Z,1.3923
2023-04-15T12:41:22.363Z,1.2769
2023-04-15T12:42:24.003Z,1.3308
2023-04-15T12:43:25.647Z,1.2077
2023-04-15T12:44:27.310Z,1.1000
2023-04-15T12:45:30.033Z,1.2077
2023-04-15T12:46:30.688Z,1.2923
2023-04-15T12:47:32.364Z,1.7077
2023-04-15T12:48:34.033Z,1.3077